sensor_id;sensor_type;location;lat;lon;timestamp;P1;durP1;ratioP1;P2;durP2;ratioP2
10465;SDS011;5280;42.600;23.556;2023-09-08T00:00:40;8.63;;;7.80;;
10465;SDS011;5280;42.600;23.556;2023-09-08T00:03:07;10.37;;;8.23;;
10465;SDS011;5280;42.600;23.556;2023-09-08T00:05:33;8.07;;;7.33;;
10465;SDS011;5280;42.600;23.556;2023-09-08T00:08:00;7.33;;;6.63;;
10465;SDS011;5280;42.600;23.556;2023-09-08T00:10:31;7.70;;;6.90;;
10465;SDS011;5280;42.600;23.556;2023-09-08T00:12:58;7.40;;;6.70;;
10465;SDS011;5280;42.600;23.556;2023-09-08T00:15:24;7.20;;;6.13;;
10465;SDS011;5280;42.600;23.556;2023-09-08T00:17:51;8.13;;;6.13;;
10465;SDS011;5280;42.600;23.556;2023-09-08T00:20:18;7.70;;;6.17;;
10465;SDS011;5280;42.600;23.556;2023-09-08T00:22:45;7.00;;;6.17;;
10465;SDS011;5280;42.600;23.556;2023-09-08T00:25:11;6.40;;;5.80;;
10465;SDS011;5280;42.600;23.556;2023-09-08T00:27:39;7.43;;;5.40;;
10465;SDS011;5280;42.600;23.556;2023-09-08T00:30:07;7.80;;;5.10;;
10465;SDS011;5280;42.600;23.556;2023-09-08T00:32:35;5.70;;;5.00;;
10465;SDS011;5280;42.600;23.556;2023-09-08T00:35:02;6.07;;;5.27;;
10465;SDS011;5280;42.600;23.556;2023-09-08T00:37:29;5.60;;;4.60;;
10465;SDS011;5280;42.600;23.556;2023-09-08T00:39:55;5.50;;;4.97;;
10465;SDS011;5280;42.600;23.556;2023-09-08T00:42:22;5.37;;;4.87;;
10465;SDS011;5280;42.600;23.556;2023-09-08T00:44:50;4.90;;;4.50;;
10465;SDS011;5280;42.600;23.556;2023-09-08T00:47:17;4.33;;;4.03;;
10465;SDS011;5280;42.600;23.556;2023-09-08T00:49:44;4.23;;;3.87;;
10465;SDS011;5280;42.600;23.556;2023-09-08T00:52:11;6.60;;;4.57;;
10465;SDS011;5280;42.600;23.556;2023-09-08T00:54:38;4.90;;;4.50;;
10465;SDS011;5280;42.600;23.556;2023-09-08T00:57:05;5.43;;;4.87;;
10465;SDS011;5280;42.600;23.556;2023-09-08T00:59:32;6.27;;;4.40;;
10465;SDS011;5280;42.600;23.556;2023-09-08T01:02:02;5.90;;;4.37;;
10465;SDS011;5280;42.600;23.556;2023-09-08T01:04:30;6.57;;;4.43;;
10465;SDS011;5280;42.600;23.556;2023-09-08T01:06:58;4.77;;;4.00;;
10465;SDS011;5280;42.600;23.556;2023-09-08T01:09:25;5.33;;;4.50;;
10465;SDS011;5280;42.600;23.556;2023-09-08T01:11:55;5.30;;;4.80;;
10465;SDS011;5280;42.600;23.556;2023-09-08T01:14:26;5.53;;;4.97;;
10465;SDS011;5280;42.600;23.556;2023-09-08T01:16:53;5.20;;;4.70;;
10465;SDS011;5280;42.600;23.556;2023-09-08T01:19:21;6.27;;;4.90;;
10465;SDS011;5280;42.600;23.556;2023-09-08T01:21:52;5.60;;;4.70;;
10465;SDS011;5280;42.600;23.556;2023-09-08T01:24:38;6.00;;;5.40;;
10465;SDS011;5280;42.600;23.556;2023-09-08T01:27:15;9.03;;;5.73;;
10465;SDS011;5280;42.600;23.556;2023-09-08T01:29:44;5.57;;;5.10;;
10465;SDS011;5280;42.600;23.556;2023-09-08T01:32:13;6.10;;;5.60;;
10465;SDS011;5280;42.600;23.556;2023-09-08T01:34:40;7.60;;;6.37;;
10465;SDS011;5280;42.600;23.556;2023-09-08T01:37:07;6.17;;;5.57;;
10465;SDS011;5280;42.600;23.556;2023-09-08T01:39:34;6.67;;;5.30;;
10465;SDS011;5280;42.600;23.556;2023-09-08T01:42:07;6.60;;;5.70;;
10465;SDS011;5280;42.600;23.556;2023-09-08T01:44:35;7.43;;;5.40;;
10465;SDS011;5280;42.600;23.556;2023-09-08T01:47:02;6.13;;;5.50;;
10465;SDS011;5280;42.600;23.556;2023-09-08T01:49:29;5.97;;;5.37;;
10465;SDS011;5280;42.600;23.556;2023-09-08T01:51:55;5.50;;;5.00;;
10465;SDS011;5280;42.600;23.556;2023-09-08T01:54:22;5.80;;;5.27;;
10465;SDS011;5280;42.600;23.556;2023-09-08T01:56:49;7.20;;;5.53;;
10465;SDS011;5280;42.600;23.556;2023-09-08T01:59:16;5.73;;;5.23;;
10465;SDS011;5280;42.600;23.556;2023-09-08T02:01:47;6.57;;;5.43;;
10465;SDS011;5280;42.600;23.556;2023-09-08T02:04:14;6.50;;;5.60;;
10465;SDS011;5280;42.600;23.556;2023-09-08T02:06:40;5.80;;;5.30;;
10465;SDS011;5280;42.600;23.556;2023-09-08T02:09:07;6.23;;;5.63;;
10465;SDS011;5280;42.600;23.556;2023-09-08T02:11:35;6.67;;;6.07;;
10465;SDS011;5280;42.600;23.556;2023-09-08T02:14:01;6.20;;;5.60;;
10465;SDS011;5280;42.600;23.556;2023-09-08T02:16:28;6.17;;;5.63;;
10465;SDS011;5280;42.600;23.556;2023-09-08T02:18:56;5.57;;;5.13;;
10465;SDS011;5280;42.600;23.556;2023-09-08T02:21:23;7.67;;;5.67;;
10465;SDS011;5280;42.600;23.556;2023-09-08T02:23:50;6.27;;;5.30;;
10465;SDS011;5280;42.600;23.556;2023-09-08T02:26:17;7.20;;;5.40;;
10465;SDS011;5280;42.600;23.556;2023-09-08T02:28:44;8.03;;;5.47;;
10465;SDS011;5280;42.600;23.556;2023-09-08T02:31:10;6.10;;;5.50;;
10465;SDS011;5280;42.600;23.556;2023-09-08T02:33:37;7.90;;;5.73;;
10465;SDS011;5280;42.600;23.556;2023-09-08T02:36:05;5.97;;;5.40;;
10465;SDS011;5280;42.600;23.556;2023-09-08T02:38:33;5.60;;;5.10;;
10465;SDS011;5280;42.600;23.556;2023-09-08T02:40:59;5.27;;;4.87;;
10465;SDS011;5280;42.600;23.556;2023-09-08T02:43:26;6.23;;;5.63;;
10465;SDS011;5280;42.600;23.556;2023-09-08T02:45:53;6.43;;;5.60;;
10465;SDS011;5280;42.600;23.556;2023-09-08T02:48:20;6.57;;;5.00;;
10465;SDS011;5280;42.600;23.556;2023-09-08T02:50:49;6.13;;;5.50;;
10465;SDS011;5280;42.600;23.556;2023-09-08T02:53:17;6.60;;;5.67;;
10465;SDS011;5280;42.600;23.556;2023-09-08T02:55:45;6.73;;;4.90;;
10465;SDS011;5280;42.600;23.556;2023-09-08T02:58:12;6.07;;;5.43;;
10465;SDS011;5280;42.600;23.556;2023-09-08T03:00:39;5.73;;;4.93;;
10465;SDS011;5280;42.600;23.556;2023-09-08T03:03:06;6.20;;;5.53;;
10465;SDS011;5280;42.600;23.556;2023-09-08T03:05:33;5.67;;;5.07;;
10465;SDS011;5280;42.600;23.556;2023-09-08T03:07:59;7.20;;;4.97;;
10465;SDS011;5280;42.600;23.556;2023-09-08T03:10:27;6.97;;;5.20;;
10465;SDS011;5280;42.600;23.556;2023-09-08T03:12:54;7.80;;;5.13;;
10465;SDS011;5280;42.600;23.556;2023-09-08T03:15:21;7.27;;;5.63;;
10465;SDS011;5280;42.600;23.556;2023-09-08T03:17:48;9.57;;;5.43;;
10465;SDS011;5280;42.600;23.556;2023-09-08T03:20:15;6.00;;;5.23;;
10465;SDS011;5280;42.600;23.556;2023-09-08T03:22:41;6.17;;;5.40;;
10465;SDS011;5280;42.600;23.556;2023-09-08T03:25:08;6.17;;;5.57;;
10465;SDS011;5280;42.600;23.556;2023-09-08T03:27:36;5.70;;;5.20;;
10465;SDS011;5280;42.600;23.556;2023-09-08T03:30:03;6.20;;;5.47;;
10465;SDS011;5280;42.600;23.556;2023-09-08T03:32:34;6.60;;;5.57;;
10465;SDS011;5280;42.600;23.556;2023-09-08T03:35:02;8.33;;;6.13;;
10465;SDS011;5280;42.600;23.556;2023-09-08T03:37:31;6.93;;;5.60;;
10465;SDS011;5280;42.600;23.556;2023-09-08T03:39:58;6.03;;;5.53;;
10465;SDS011;5280;42.600;23.556;2023-09-08T03:42:24;6.97;;;5.77;;
10465;SDS011;5280;42.600;23.556;2023-09-08T03:44:52;7.43;;;5.70;;
10465;SDS011;5280;42.600;23.556;2023-09-08T03:47:19;6.33;;;5.57;;
10465;SDS011;5280;42.600;23.556;2023-09-08T03:49:46;6.90;;;5.70;;
10465;SDS011;5280;42.600;23.556;2023-09-08T03:52:16;7.10;;;6.40;;
10465;SDS011;5280;42.600;23.556;2023-09-08T03:54:42;6.43;;;5.83;;
10465;SDS011;5280;42.600;23.556;2023-09-08T03:57:09;6.40;;;5.70;;
10465;SDS011;5280;42.600;23.556;2023-09-08T03:59:39;6.87;;;5.50;;
10465;SDS011;5280;42.600;23.556;2023-09-08T04:02:07;7.53;;;6.23;;
10465;SDS011;5280;42.600;23.556;2023-09-08T04:04:33;6.33;;;5.70;;
10465;SDS011;5280;42.600;23.556;2023-09-08T04:07:00;7.47;;;6.03;;
10465;SDS011;5280;42.600;23.556;2023-09-08T04:09:27;6.00;;;5.50;;
10465;SDS011;5280;42.600;23.556;2023-09-08T04:11:54;6.80;;;5.67;;
10465;SDS011;5280;42.600;23.556;2023-09-08T04:14:21;6.10;;;5.57;;
10465;SDS011;5280;42.600;23.556;2023-09-08T04:16:52;6.63;;;5.60;;
10465;SDS011;5280;42.600;23.556;2023-09-08T04:19:20;6.07;;;5.47;;
10465;SDS011;5280;42.600;23.556;2023-09-08T04:21:48;6.77;;;6.07;;
10465;SDS011;5280;42.600;23.556;2023-09-08T04:24:15;8.20;;;6.10;;
10465;SDS011;5280;42.600;23.556;2023-09-08T04:26:42;6.60;;;6.00;;
10465;SDS011;5280;42.600;23.556;2023-09-08T04:29:09;6.23;;;5.73;;
10465;SDS011;5280;42.600;23.556;2023-09-08T04:31:35;7.07;;;6.37;;
10465;SDS011;5280;42.600;23.556;2023-09-08T04:34:02;7.30;;;5.90;;
10465;SDS011;5280;42.600;23.556;2023-09-08T04:36:30;7.67;;;5.80;;
10465;SDS011;5280;42.600;23.556;2023-09-08T04:38:57;6.57;;;5.87;;
10465;SDS011;5280;42.600;23.556;2023-09-08T04:41:24;7.13;;;6.03;;
10465;SDS011;5280;42.600;23.556;2023-09-08T04:43:51;6.17;;;5.57;;
10465;SDS011;5280;42.600;23.556;2023-09-08T04:46:17;8.37;;;5.83;;
10465;SDS011;5280;42.600;23.556;2023-09-08T04:48:44;8.70;;;5.70;;
10465;SDS011;5280;42.600;23.556;2023-09-08T04:51:14;8.50;;;6.10;;
10465;SDS011;5280;42.600;23.556;2023-09-08T04:53:42;6.37;;;5.77;;
10465;SDS011;5280;42.600;23.556;2023-09-08T04:56:09;7.30;;;5.27;;
10465;SDS011;5280;42.600;23.556;2023-09-08T04:58:35;6.00;;;5.40;;
10465;SDS011;5280;42.600;23.556;2023-09-08T05:01:05;6.23;;;5.53;;
10465;SDS011;5280;42.600;23.556;2023-09-08T05:03:32;7.03;;;5.60;;
10465;SDS011;5280;42.600;23.556;2023-09-08T05:05:58;6.00;;;5.40;;
10465;SDS011;5280;42.600;23.556;2023-09-08T05:08:29;5.80;;;5.37;;
10465;SDS011;5280;42.600;23.556;2023-09-08T05:10:57;6.33;;;5.63;;
10465;SDS011;5280;42.600;23.556;2023-09-08T05:13:24;5.90;;;5.30;;
10465;SDS011;5280;42.600;23.556;2023-09-08T05:15:52;6.00;;;5.40;;
10465;SDS011;5280;42.600;23.556;2023-09-08T05:18:25;5.80;;;5.20;;
10465;SDS011;5280;42.600;23.556;2023-09-08T05:20:52;5.37;;;4.87;;
10465;SDS011;5280;42.600;23.556;2023-09-08T05:23:19;5.43;;;4.63;;
10465;SDS011;5280;42.600;23.556;2023-09-08T05:25:46;5.77;;;4.77;;
10465;SDS011;5280;42.600;23.556;2023-09-08T05:28:17;5.50;;;4.90;;
10465;SDS011;5280;42.600;23.556;2023-09-08T05:30:44;5.27;;;4.17;;
10465;SDS011;5280;42.600;23.556;2023-09-08T05:33:10;9.30;;;4.40;;
10465;SDS011;5280;42.600;23.556;2023-09-08T05:35:37;8.60;;;3.93;;
10465;SDS011;5280;42.600;23.556;2023-09-08T05:38:04;5.10;;;4.03;;
10465;SDS011;5280;42.600;23.556;2023-09-08T05:40:31;4.90;;;3.83;;
10465;SDS011;5280;42.600;23.556;2023-09-08T05:42:58;4.27;;;3.87;;
10465;SDS011;5280;42.600;23.556;2023-09-08T05:45:31;4.40;;;4.00;;
10465;SDS011;5280;42.600;23.556;2023-09-08T05:47:58;5.83;;;4.43;;
10465;SDS011;5280;42.600;23.556;2023-09-08T05:50:28;6.83;;;4.23;;
10465;SDS011;5280;42.600;23.556;2023-09-08T05:52:55;3.57;;;3.27;;
10465;SDS011;5280;42.600;23.556;2023-09-08T05:55:21;5.00;;;4.60;;
10465;SDS011;5280;42.600;23.556;2023-09-08T05:57:48;4.70;;;4.40;;
10465;SDS011;5280;42.600;23.556;2023-09-08T06:00:15;4.30;;;3.97;;
10465;SDS011;5280;42.600;23.556;2023-09-08T06:02:44;8.87;;;4.40;;
10465;SDS011;5280;42.600;23.556;2023-09-08T06:05:10;4.30;;;3.90;;
10465;SDS011;5280;42.600;23.556;2023-09-08T06:07:37;6.63;;;4.20;;
10465;SDS011;5280;42.600;23.556;2023-09-08T06:10:05;6.20;;;4.20;;
10465;SDS011;5280;42.600;23.556;2023-09-08T06:12:32;4.37;;;3.63;;
10465;SDS011;5280;42.600;23.556;2023-09-08T06:15:01;4.73;;;4.20;;
10465;SDS011;5280;42.600;23.556;2023-09-08T06:17:30;4.70;;;4.07;;
10465;SDS011;5280;42.600;23.556;2023-09-08T06:19:58;5.40;;;4.43;;
10465;SDS011;5280;42.600;23.556;2023-09-08T06:22:24;6.87;;;4.13;;
10465;SDS011;5280;42.600;23.556;2023-09-08T06:24:51;4.10;;;3.80;;
10465;SDS011;5280;42.600;23.556;2023-09-08T06:27:21;6.33;;;4.10;;
10465;SDS011;5280;42.600;23.556;2023-09-08T06:29:48;4.93;;;3.77;;
10465;SDS011;5280;42.600;23.556;2023-09-08T06:32:14;7.90;;;4.13;;
10465;SDS011;5280;42.600;23.556;2023-09-08T06:34:41;4.50;;;4.10;;
10465;SDS011;5280;42.600;23.556;2023-09-08T06:37:10;4.87;;;4.37;;
10465;SDS011;5280;42.600;23.556;2023-09-08T06:39:37;4.30;;;3.90;;
10465;SDS011;5280;42.600;23.556;2023-09-08T06:42:04;4.90;;;4.13;;
10465;SDS011;5280;42.600;23.556;2023-09-08T06:44:32;3.77;;;3.47;;
10465;SDS011;5280;42.600;23.556;2023-09-08T06:46:58;4.40;;;3.90;;
10465;SDS011;5280;42.600;23.556;2023-09-08T06:49:25;6.47;;;4.37;;
10465;SDS011;5280;42.600;23.556;2023-09-08T06:51:52;4.40;;;3.70;;
10465;SDS011;5280;42.600;23.556;2023-09-08T06:54:20;3.83;;;3.53;;
10465;SDS011;5280;42.600;23.556;2023-09-08T06:56:47;3.67;;;3.27;;
10465;SDS011;5280;42.600;23.556;2023-09-08T06:59:14;3.60;;;3.30;;
10465;SDS011;5280;42.600;23.556;2023-09-08T07:01:42;3.13;;;2.93;;
10465;SDS011;5280;42.600;23.556;2023-09-08T07:04:09;3.93;;;3.17;;
10465;SDS011;5280;42.600;23.556;2023-09-08T07:06:36;3.77;;;3.40;;
10465;SDS011;5280;42.600;23.556;2023-09-08T07:09:05;3.77;;;3.10;;
10465;SDS011;5280;42.600;23.556;2023-09-08T07:11:35;4.17;;;3.40;;
10465;SDS011;5280;42.600;23.556;2023-09-08T07:14:01;4.23;;;3.00;;
10465;SDS011;5280;42.600;23.556;2023-09-08T07:16:28;3.13;;;2.70;;
10465;SDS011;5280;42.600;23.556;2023-09-08T07:18:55;3.00;;;2.57;;
10465;SDS011;5280;42.600;23.556;2023-09-08T07:21:26;2.90;;;2.53;;
10465;SDS011;5280;42.600;23.556;2023-09-08T07:23:53;3.40;;;2.87;;
10465;SDS011;5280;42.600;23.556;2023-09-08T07:26:20;4.57;;;2.60;;
10465;SDS011;5280;42.600;23.556;2023-09-08T07:28:48;3.90;;;3.00;;
10465;SDS011;5280;42.600;23.556;2023-09-08T07:31:18;5.00;;;2.77;;
10465;SDS011;5280;42.600;23.556;2023-09-08T07:33:45;4.40;;;2.87;;
10465;SDS011;5280;42.600;23.556;2023-09-08T07:36:11;2.90;;;2.70;;
10465;SDS011;5280;42.600;23.556;2023-09-08T07:38:40;2.90;;;2.63;;
10465;SDS011;5280;42.600;23.556;2023-09-08T07:41:07;5.07;;;2.50;;
10465;SDS011;5280;42.600;23.556;2023-09-08T07:43:33;2.93;;;2.70;;
10465;SDS011;5280;42.600;23.556;2023-09-08T07:46:06;3.13;;;2.77;;
10465;SDS011;5280;42.600;23.556;2023-09-08T07:48:33;3.53;;;3.00;;
10465;SDS011;5280;42.600;23.556;2023-09-08T07:51:00;2.83;;;2.63;;
10465;SDS011;5280;42.600;23.556;2023-09-08T07:53:27;2.93;;;2.53;;
10465;SDS011;5280;42.600;23.556;2023-09-08T07:55:56;2.73;;;2.53;;
10465;SDS011;5280;42.600;23.556;2023-09-08T07:58:23;3.03;;;2.80;;
10465;SDS011;5280;42.600;23.556;2023-09-08T08:00:53;3.10;;;2.90;;
10465;SDS011;5280;42.600;23.556;2023-09-08T08:03:21;2.77;;;2.57;;
10465;SDS011;5280;42.600;23.556;2023-09-08T08:05:48;6.90;;;3.00;;
10465;SDS011;5280;42.600;23.556;2023-09-08T08:08:15;2.80;;;2.60;;
10465;SDS011;5280;42.600;23.556;2023-09-08T08:10:42;3.00;;;2.70;;
10465;SDS011;5280;42.600;23.556;2023-09-08T08:13:09;3.40;;;3.07;;
10465;SDS011;5280;42.600;23.556;2023-09-08T08:15:36;6.77;;;3.33;;
10465;SDS011;5280;42.600;23.556;2023-09-08T08:18:05;3.13;;;2.60;;
10465;SDS011;5280;42.600;23.556;2023-09-08T08:20:33;2.90;;;2.70;;
10465;SDS011;5280;42.600;23.556;2023-09-08T08:23:00;4.40;;;3.30;;
10465;SDS011;5280;42.600;23.556;2023-09-08T08:25:28;4.40;;;3.20;;
10465;SDS011;5280;42.600;23.556;2023-09-08T08:27:55;4.55;;;3.00;;
10465;SDS011;5280;42.600;23.556;2023-09-08T08:30:23;3.10;;;2.80;;
10465;SDS011;5280;42.600;23.556;2023-09-08T08:32:50;6.27;;;2.97;;
10465;SDS011;5280;42.600;23.556;2023-09-08T08:35:18;3.37;;;3.10;;
10465;SDS011;5280;42.600;23.556;2023-09-08T08:37:46;3.83;;;2.95;;
10465;SDS011;5280;42.600;23.556;2023-09-08T08:40:22;3.30;;;3.00;;
10465;SDS011;5280;42.600;23.556;2023-09-08T08:42:56;6.25;;;3.20;;
10465;SDS011;5280;42.600;23.556;2023-09-08T08:45:24;5.22;;;2.75;;
10465;SDS011;5280;42.600;23.556;2023-09-08T08:47:51;5.40;;;3.35;;
10465;SDS011;5280;42.600;23.556;2023-09-08T08:50:18;3.83;;;2.93;;
10465;SDS011;5280;42.600;23.556;2023-09-08T08:52:47;3.37;;;2.83;;
10465;SDS011;5280;42.600;23.556;2023-09-08T08:55:15;4.43;;;2.97;;
10465;SDS011;5280;42.600;23.556;2023-09-08T08:57:41;4.07;;;2.70;;
10465;SDS011;5280;42.600;23.556;2023-09-08T09:00:10;4.80;;;3.13;;
10465;SDS011;5280;42.600;23.556;2023-09-08T09:02:40;3.07;;;2.87;;
10465;SDS011;5280;42.600;23.556;2023-09-08T09:05:11;4.63;;;2.88;;
10465;SDS011;5280;42.600;23.556;2023-09-08T09:07:38;4.25;;;3.00;;
10465;SDS011;5280;42.600;23.556;2023-09-08T09:10:07;3.40;;;3.20;;
10465;SDS011;5280;42.600;23.556;2023-09-08T09:12:35;3.33;;;3.13;;
10465;SDS011;5280;42.600;23.556;2023-09-08T09:15:03;3.58;;;3.25;;
10465;SDS011;5280;42.600;23.556;2023-09-08T09:17:32;5.38;;;3.20;;
10465;SDS011;5280;42.600;23.556;2023-09-08T09:20:12;3.20;;;2.90;;
10465;SDS011;5280;42.600;23.556;2023-09-08T09:22:40;3.30;;;3.00;;
10465;SDS011;5280;42.600;23.556;2023-09-08T09:25:09;4.43;;;3.22;;
10465;SDS011;5280;42.600;23.556;2023-09-08T09:27:36;3.65;;;2.88;;
10465;SDS011;5280;42.600;23.556;2023-09-08T09:30:06;4.95;;;2.80;;
10465;SDS011;5280;42.600;23.556;2023-09-08T09:32:34;3.30;;;3.10;;
10465;SDS011;5280;42.600;23.556;2023-09-08T09:35:01;3.40;;;3.10;;
10465;SDS011;5280;42.600;23.556;2023-09-08T09:37:28;3.30;;;3.05;;
10465;SDS011;5280;42.600;23.556;2023-09-08T09:39:56;5.50;;;2.83;;
10465;SDS011;5280;42.600;23.556;2023-09-08T09:42:24;7.50;;;3.40;;
10465;SDS011;5280;42.600;23.556;2023-09-08T09:44:56;2.70;;;2.60;;
10465;SDS011;5280;42.600;23.556;2023-09-08T09:47:23;3.50;;;3.20;;
10465;SDS011;5280;42.600;23.556;2023-09-08T09:49:50;3.30;;;3.00;;
10465;SDS011;5280;42.600;23.556;2023-09-08T09:52:20;5.88;;;2.83;;
10465;SDS011;5280;42.600;23.556;2023-09-08T09:54:48;3.13;;;2.80;;
10465;SDS011;5280;42.600;23.556;2023-09-08T09:57:19;3.25;;;3.00;;
10465;SDS011;5280;42.600;23.556;2023-09-08T09:59:49;3.80;;;3.10;;
10465;SDS011;5280;42.600;23.556;2023-09-08T10:02:20;2.97;;;2.78;;
10465;SDS011;5280;42.600;23.556;2023-09-08T10:04:48;3.40;;;3.10;;
10465;SDS011;5280;42.600;23.556;2023-09-08T10:07:18;4.43;;;3.10;;
10465;SDS011;5280;42.600;23.556;2023-09-08T10:09:45;6.50;;;2.90;;
10465;SDS011;5280;42.600;23.556;2023-09-08T10:12:13;5.00;;;3.30;;
10465;SDS011;5280;42.600;23.556;2023-09-08T10:14:42;2.90;;;2.70;;
10465;SDS011;5280;42.600;23.556;2023-09-08T10:17:12;3.65;;;2.95;;
10465;SDS011;5280;42.600;23.556;2023-09-08T10:19:43;5.13;;;3.17;;
10465;SDS011;5280;42.600;23.556;2023-09-08T10:22:18;3.38;;;3.10;;
10465;SDS011;5280;42.600;23.556;2023-09-08T10:24:50;3.40;;;2.63;;
10465;SDS011;5280;42.600;23.556;2023-09-08T10:27:21;3.83;;;3.30;;
10465;SDS011;5280;42.600;23.556;2023-09-08T10:29:50;3.10;;;2.88;;
10465;SDS011;5280;42.600;23.556;2023-09-08T10:32:19;3.33;;;3.03;;
10465;SDS011;5280;42.600;23.556;2023-09-08T10:34:48;3.20;;;2.90;;
10465;SDS011;5280;42.600;23.556;2023-09-08T10:37:20;3.40;;;3.10;;
10465;SDS011;5280;42.600;23.556;2023-09-08T10:39:47;3.17;;;2.92;;
10465;SDS011;5280;42.600;23.556;2023-09-08T10:42:21;6.18;;;4.70;;
10465;SDS011;5280;42.600;23.556;2023-09-08T10:45:00;4.75;;;4.35;;
10465;SDS011;5280;42.600;23.556;2023-09-08T10:47:32;3.72;;;3.42;;
10465;SDS011;5280;42.600;23.556;2023-09-08T10:50:06;16.23;;;14.82;;
10465;SDS011;5280;42.600;23.556;2023-09-08T10:52:34;5.97;;;4.30;;
10465;SDS011;5280;42.600;23.556;2023-09-08T10:55:01;3.55;;;3.25;;
10465;SDS011;5280;42.600;23.556;2023-09-08T10:57:30;5.45;;;5.13;;
10465;SDS011;5280;42.600;23.556;2023-09-08T11:00:00;6.13;;;3.67;;
10465;SDS011;5280;42.600;23.556;2023-09-08T11:02:35;5.22;;;3.45;;
10465;SDS011;5280;42.600;23.556;2023-09-08T11:05:04;3.25;;;2.97;;
10465;SDS011;5280;42.600;23.556;2023-09-08T11:07:36;3.63;;;2.80;;
10465;SDS011;5280;42.600;23.556;2023-09-08T11:10:06;4.20;;;3.03;;
10465;SDS011;5280;42.600;23.556;2023-09-08T11:12:34;5.07;;;4.35;;
10465;SDS011;5280;42.600;23.556;2023-09-08T11:15:01;4.35;;;3.78;;
10465;SDS011;5280;42.600;23.556;2023-09-08T11:17:35;3.63;;;3.30;;
10465;SDS011;5280;42.600;23.556;2023-09-08T11:20:05;2.95;;;2.75;;
10465;SDS011;5280;42.600;23.556;2023-09-08T11:22:36;3.53;;;3.22;;
10465;SDS011;5280;42.600;23.556;2023-09-08T11:25:05;3.83;;;3.45;;
10465;SDS011;5280;42.600;23.556;2023-09-08T11:27:33;3.40;;;3.13;;
10465;SDS011;5280;42.600;23.556;2023-09-08T11:30:00;4.57;;;3.40;;
10465;SDS011;5280;42.600;23.556;2023-09-08T11:32:31;3.42;;;3.17;;
10465;SDS011;5280;42.600;23.556;2023-09-08T11:35:06;3.45;;;3.15;;
10465;SDS011;5280;42.600;23.556;2023-09-08T11:37:34;3.20;;;2.90;;
10465;SDS011;5280;42.600;23.556;2023-09-08T11:40:03;4.10;;;2.97;;
10465;SDS011;5280;42.600;23.556;2023-09-08T11:42:34;4.57;;;3.20;;
10465;SDS011;5280;42.600;23.556;2023-09-08T11:45:01;4.00;;;3.35;;
10465;SDS011;5280;42.600;23.556;2023-09-08T11:47:29;3.63;;;3.40;;
10465;SDS011;5280;42.600;23.556;2023-09-08T11:49:59;5.85;;;4.22;;
10465;SDS011;5280;42.600;23.556;2023-09-08T11:52:25;6.72;;;3.35;;
10465;SDS011;5280;42.600;23.556;2023-09-08T11:54:52;3.95;;;3.10;;
10465;SDS011;5280;42.600;23.556;2023-09-08T11:57:19;6.40;;;3.60;;
10465;SDS011;5280;42.600;23.556;2023-09-08T11:59:46;5.07;;;4.20;;
10465;SDS011;5280;42.600;23.556;2023-09-08T12:02:14;4.35;;;3.95;;
10465;SDS011;5280;42.600;23.556;2023-09-08T12:04:42;3.30;;;3.10;;
10465;SDS011;5280;42.600;23.556;2023-09-08T12:07:13;3.97;;;2.77;;
10465;SDS011;5280;42.600;23.556;2023-09-08T12:09:41;4.15;;;2.92;;
10465;SDS011;5280;42.600;23.556;2023-09-08T12:12:12;4.03;;;2.90;;
10465;SDS011;5280;42.600;23.556;2023-09-08T12:14:42;3.35;;;3.03;;
10465;SDS011;5280;42.600;23.556;2023-09-08T12:17:09;3.67;;;3.10;;
10465;SDS011;5280;42.600;23.556;2023-09-08T12:19:40;3.60;;;3.30;;
10465;SDS011;5280;42.600;23.556;2023-09-08T12:22:07;4.90;;;2.88;;
10465;SDS011;5280;42.600;23.556;2023-09-08T12:24:47;3.30;;;3.00;;
10465;SDS011;5280;42.600;23.556;2023-09-08T12:27:23;3.50;;;3.20;;
10465;SDS011;5280;42.600;23.556;2023-09-08T12:29:56;4.05;;;3.42;;
10465;SDS011;5280;42.600;23.556;2023-09-08T12:32:25;4.97;;;3.30;;
10465;SDS011;5280;42.600;23.556;2023-09-08T12:34:54;4.10;;;3.05;;
10465;SDS011;5280;42.600;23.556;2023-09-08T12:37:26;4.33;;;3.37;;
10465;SDS011;5280;42.600;23.556;2023-09-08T12:39:54;4.47;;;3.07;;
10465;SDS011;5280;42.600;23.556;2023-09-08T12:42:21;5.85;;;2.92;;
10465;SDS011;5280;42.600;23.556;2023-09-08T12:44:50;3.77;;;3.47;;
10465;SDS011;5280;42.600;23.556;2023-09-08T12:47:18;3.20;;;3.00;;
10465;SDS011;5280;42.600;23.556;2023-09-08T12:49:44;4.68;;;2.97;;
10465;SDS011;5280;42.600;23.556;2023-09-08T12:52:11;3.35;;;3.05;;
10465;SDS011;5280;42.600;23.556;2023-09-08T12:54:38;3.90;;;3.13;;
10465;SDS011;5280;42.600;23.556;2023-09-08T12:57:06;8.77;;;3.88;;
10465;SDS011;5280;42.600;23.556;2023-09-08T12:59:36;3.15;;;2.85;;
10465;SDS011;5280;42.600;23.556;2023-09-08T13:02:03;5.05;;;3.00;;
10465;SDS011;5280;42.600;23.556;2023-09-08T13:04:30;4.03;;;3.13;;
10465;SDS011;5280;42.600;23.556;2023-09-08T13:06:59;4.30;;;3.42;;
10465;SDS011;5280;42.600;23.556;2023-09-08T13:09:26;2.80;;;2.67;;
10465;SDS011;5280;42.600;23.556;2023-09-08T13:11:53;3.67;;;3.10;;
10465;SDS011;5280;42.600;23.556;2023-09-08T13:14:21;4.30;;;2.93;;
10465;SDS011;5280;42.600;23.556;2023-09-08T13:16:50;3.67;;;3.20;;
10465;SDS011;5280;42.600;23.556;2023-09-08T13:19:17;3.53;;;2.95;;
10465;SDS011;5280;42.600;23.556;2023-09-08T13:21:44;4.03;;;3.63;;
10465;SDS011;5280;42.600;23.556;2023-09-08T13:24:11;3.73;;;3.10;;
10465;SDS011;5280;42.600;23.556;2023-09-08T13:26:38;3.33;;;3.13;;
10465;SDS011;5280;42.600;23.556;2023-09-08T13:29:05;4.27;;;3.00;;
10465;SDS011;5280;42.600;23.556;2023-09-08T13:31:33;5.35;;;3.00;;
10465;SDS011;5280;42.600;23.556;2023-09-08T13:34:01;4.28;;;3.55;;
10465;SDS011;5280;42.600;23.556;2023-09-08T13:36:28;3.35;;;3.10;;
10465;SDS011;5280;42.600;23.556;2023-09-08T13:38:58;3.97;;;3.17;;
10465;SDS011;5280;42.600;23.556;2023-09-08T13:41:25;3.45;;;3.15;;
10465;SDS011;5280;42.600;23.556;2023-09-08T13:44:09;3.15;;;2.90;;
10465;SDS011;5280;42.600;23.556;2023-09-08T13:46:37;5.18;;;3.50;;
10465;SDS011;5280;42.600;23.556;2023-09-08T13:49:04;5.72;;;3.03;;
10465;SDS011;5280;42.600;23.556;2023-09-08T13:51:31;8.50;;;3.20;;
10465;SDS011;5280;42.600;23.556;2023-09-08T13:53:59;4.13;;;3.10;;
10465;SDS011;5280;42.600;23.556;2023-09-08T13:56:25;3.40;;;3.10;;
10465;SDS011;5280;42.600;23.556;2023-09-08T13:58:52;3.13;;;2.83;;
10465;SDS011;5280;42.600;23.556;2023-09-08T14:01:19;3.53;;;3.10;;
10465;SDS011;5280;42.600;23.556;2023-09-08T14:03:47;3.45;;;2.90;;
10465;SDS011;5280;42.600;23.556;2023-09-08T14:06:16;3.53;;;2.97;;
10465;SDS011;5280;42.600;23.556;2023-09-08T14:08:43;3.10;;;2.80;;
10465;SDS011;5280;42.600;23.556;2023-09-08T14:11:15;3.58;;;3.38;;
10465;SDS011;5280;42.600;23.556;2023-09-08T14:13:42;4.53;;;3.33;;
10465;SDS011;5280;42.600;23.556;2023-09-08T14:16:09;3.00;;;2.80;;
10465;SDS011;5280;42.600;23.556;2023-09-08T14:18:35;3.20;;;3.00;;
10465;SDS011;5280;42.600;23.556;2023-09-08T14:21:04;3.65;;;3.00;;
10465;SDS011;5280;42.600;23.556;2023-09-08T14:23:31;3.20;;;3.00;;
10465;SDS011;5280;42.600;23.556;2023-09-08T14:25:59;3.65;;;2.75;;
10465;SDS011;5280;42.600;23.556;2023-09-08T14:28:26;3.10;;;2.90;;
10465;SDS011;5280;42.600;23.556;2023-09-08T14:30:53;3.67;;;3.00;;
10465;SDS011;5280;42.600;23.556;2023-09-08T14:33:19;3.30;;;3.10;;
10465;SDS011;5280;42.600;23.556;2023-09-08T14:35:50;3.90;;;3.00;;
10465;SDS011;5280;42.600;23.556;2023-09-08T14:38:18;5.20;;;3.00;;
10465;SDS011;5280;42.600;23.556;2023-09-08T14:40:45;6.17;;;3.03;;
10465;SDS011;5280;42.600;23.556;2023-09-08T14:43:20;4.43;;;3.27;;
10465;SDS011;5280;42.600;23.556;2023-09-08T14:45:51;4.93;;;3.15;;
10465;SDS011;5280;42.600;23.556;2023-09-08T14:48:18;5.22;;;2.97;;
10465;SDS011;5280;42.600;23.556;2023-09-08T14:50:45;3.22;;;2.95;;
10465;SDS011;5280;42.600;23.556;2023-09-08T14:53:11;4.10;;;3.17;;